sensor_id;sensor_type;location;lat;lon;timestamp;temperature;humidity
57552;DHT22;43379;48.160;14.036;2022-07-01T00:01:43;21.50;99.90
57552;DHT22;43379;48.160;14.036;2022-07-01T00:04:10;21.50;99.90
57552;DHT22;43379;48.160;14.036;2022-07-01T00:06:36;21.50;99.90
57552;DHT22;43379;48.160;14.036;2022-07-01T00:09:03;21.50;99.90
57552;DHT22;43379;48.160;14.036;2022-07-01T00:11:31;21.50;99.90
57552;DHT22;43379;48.160;14.036;2022-07-01T00:13:56;21.40;99.90
57552;DHT22;43379;48.160;14.036;2022-07-01T00:16:22;21.40;99.90
57552;DHT22;43379;48.160;14.036;2022-07-01T00:18:48;21.40;99.90
57552;DHT22;43379;48.160;14.036;2022-07-01T00:21:14;21.40;99.90
57552;DHT22;43379;48.160;14.036;2022-07-01T00:23:40;21.50;99.90
57552;DHT22;43379;48.160;14.036;2022-07-01T00:26:06;21.50;99.90
57552;DHT22;43379;48.160;14.036;2022-07-01T00:28:32;21.50;99.90
57552;DHT22;43379;48.160;14.036;2022-07-01T00:30:57;21.40;99.90
57552;DHT22;43379;48.160;14.036;2022-07-01T00:33:23;21.40;99.90
57552;DHT22;43379;48.160;14.036;2022-07-01T00:35:48;21.40;99.90
57552;DHT22;43379;48.160;14.036;2022-07-01T00:38:15;21.30;99.90
57552;DHT22;43379;48.160;14.036;2022-07-01T00:40:40;21.30;99.90
57552;DHT22;43379;48.160;14.036;2022-07-01T00:43:06;21.30;99.90
57552;DHT22;43379;48.160;14.036;2022-07-01T00:45:32;21.20;99.90
57552;DHT22;43379;48.160;14.036;2022-07-01T00:47:58;21.20;99.90
57552;DHT22;43379;48.160;14.036;2022-07-01T00:50:24;21.20;99.90
57552;DHT22;43379;48.160;14.036;2022-07-01T00:52:50;21.30;99.90
57552;DHT22;43379;48.160;14.036;2022-07-01T00:55:15;21.30;99.90
57552;DHT22;43379;48.160;14.036;2022-07-01T00:57:42;21.30;99.90
57552;DHT22;43379;48.160;14.036;2022-07-01T01:00:14;21.30;99.90
57552;DHT22;43379;48.160;14.036;2022-07-01T01:02:40;21.20;99.90
57552;DHT22;43379;48.160;14.036;2022-07-01T01:05:08;21.20;99.90
57552;DHT22;43379;48.160;14.036;2022-07-01T01:07:34;21.20;99.90
57552;DHT22;43379;48.160;14.036;2022-07-01T01:10:01;21.20;99.90
57552;DHT22;43379;48.160;14.036;2022-07-01T01:12:29;21.20;99.90
57552;DHT22;43379;48.160;14.036;2022-07-01T01:14:56;21.10;99.90
57552;DHT22;43379;48.160;14.036;2022-07-01T01:17:23;21.20;99.90
57552;DHT22;43379;48.160;14.036;2022-07-01T01:19:50;21.20;99.90
57552;DHT22;43379;48.160;14.036;2022-07-01T01:22:17;21.20;99.90
57552;DHT22;43379;48.160;14.036;2022-07-01T01:24:44;21.10;99.90
57552;DHT22;43379;48.160;14.036;2022-07-01T01:27:10;21.10;99.90
57552;DHT22;43379;48.160;14.036;2022-07-01T01:29:36;21.10;99.90
57552;DHT22;43379;48.160;14.036;2022-07-01T01:32:04;21.10;99.90
57552;DHT22;43379;48.160;14.036;2022-07-01T01:34:31;21.10;99.90
57552;DHT22;43379;48.160;14.036;2022-07-01T01:36:58;21.00;99.90
57552;DHT22;43379;48.160;14.036;2022-07-01T01:39:24;21.10;99.90
57552;DHT22;43379;48.160;14.036;2022-07-01T01:41:50;21.00;99.90
57552;DHT22;43379;48.160;14.036;2022-07-01T01:44:18;21.00;99.90
57552;DHT22;43379;48.160;14.036;2022-07-01T01:46:44;21.00;99.90
57552;DHT22;43379;48.160;14.036;2022-07-01T01:49:10;21.00;99.90
57552;DHT22;43379;48.160;14.036;2022-07-01T01:51:36;20.90;99.90
57552;DHT22;43379;48.160;14.036;2022-07-01T01:54:03;20.90;99.90
57552;DHT22;43379;48.160;14.036;2022-07-01T01:56:28;20.90;99.90
57552;DHT22;43379;48.160;14.036;2022-07-01T01:58:55;20.90;99.90
57552;DHT22;43379;48.160;14.036;2022-07-01T02:01:21;20.90;99.90
57552;DHT22;43379;48.160;14.036;2022-07-01T02:03:49;20.90;99.90
57552;DHT22;43379;48.160;14.036;2022-07-01T02:06:17;21.00;99.90
57552;DHT22;43379;48.160;14.036;2022-07-01T02:08:43;20.90;99.90
57552;DHT22;43379;48.160;14.036;2022-07-01T02:11:09;20.90;99.90
57552;DHT22;43379;48.160;14.036;2022-07-01T02:13:36;20.90;99.90
57552;DHT22;43379;48.160;14.036;2022-07-01T02:16:03;20.90;99.90
57552;DHT22;43379;48.160;14.036;2022-07-01T02:18:29;20.90;99.90
57552;DHT22;43379;48.160;14.036;2022-07-01T02:20:55;20.90;99.90
57552;DHT22;43379;48.160;14.036;2022-07-01T02:23:21;20.90;99.90
57552;DHT22;43379;48.160;14.036;2022-07-01T02:25:48;21.00;99.90
57552;DHT22;43379;48.160;14.036;2022-07-01T02:28:14;21.00;99.90
57552;DHT22;43379;48.160;14.036;2022-07-01T02:30:39;20.90;99.90
57552;DHT22;43379;48.160;14.036;2022-07-01T02:33:06;20.90;99.90
57552;DHT22;43379;48.160;14.036;2022-07-01T02:35:34;20.80;99.90
57552;DHT22;43379;48.160;14.036;2022-07-01T02:38:01;20.80;99.90
57552;DHT22;43379;48.160;14.036;2022-07-01T02:40:26;20.80;99.90
57552;DHT22;43379;48.160;14.036;2022-07-01T02:42:52;20.80;99.90
57552;DHT22;43379;48.160;14.036;2022-07-01T02:45:18;20.80;99.90
57552;DHT22;43379;48.160;14.036;2022-07-01T02:47:43;20.70;99.90
57552;DHT22;43379;48.160;14.036;2022-07-01T02:50:12;20.70;99.90
57552;DHT22;43379;48.160;14.036;2022-07-01T02:52:40;20.80;99.90
57552;DHT22;43379;48.160;14.036;2022-07-01T02:55:08;20.80;99.90
57552;DHT22;43379;48.160;14.036;2022-07-01T02:57:34;20.80;99.90
57552;DHT22;43379;48.160;14.036;2022-07-01T03:00:00;20.80;99.90
57552;DHT22;43379;48.160;14.036;2022-07-01T03:02:26;20.70;99.90
57552;DHT22;43379;48.160;14.036;2022-07-01T03:04:53;20.80;99.90
57552;DHT22;43379;48.160;14.036;2022-07-01T03:07:19;20.70;99.90
57552;DHT22;43379;48.160;14.036;2022-07-01T03:09:45;20.80;99.90
57552;DHT22;43379;48.160;14.036;2022-07-01T03:12:12;20.80;99.90
57552;DHT22;43379;48.160;14.036;2022-07-01T03:15:00;20.70;99.90
57552;DHT22;43379;48.160;14.036;2022-07-01T03:17:28;20.70;99.90
57552;DHT22;43379;48.160;14.036;2022-07-01T03:19:55;20.70;99.90
57552;DHT22;43379;48.160;14.036;2022-07-01T03:22:22;20.70;99.90
57552;DHT22;43379;48.160;14.036;2022-07-01T03:24:49;20.70;99.90
57552;DHT22;43379;48.160;14.036;2022-07-01T03:27:16;20.70;99.90
57552;DHT22;43379;48.160;14.036;2022-07-01T03:29:41;20.80;99.90
57552;DHT22;43379;48.160;14.036;2022-07-01T03:32:10;20.80;99.90
57552;DHT22;43379;48.160;14.036;2022-07-01T03:34:42;20.80;99.90
57552;DHT22;43379;48.160;14.036;2022-07-01T03:37:09;20.80;99.90
57552;DHT22;43379;48.160;14.036;2022-07-01T03:39:37;20.80;99.90
57552;DHT22;43379;48.160;14.036;2022-07-01T03:42:04;20.80;99.90
57552;DHT22;43379;48.160;14.036;2022-07-01T03:44:31;20.80;99.90
57552;DHT22;43379;48.160;14.036;2022-07-01T03:46:56;20.80;99.90
57552;DHT22;43379;48.160;14.036;2022-07-01T03:49:22;20.90;99.90
57552;DHT22;43379;48.160;14.036;2022-07-01T03:51:48;20.80;99.90
57552;DHT22;43379;48.160;14.036;2022-07-01T03:54:14;20.90;99.90
57552;DHT22;43379;48.160;14.036;2022-07-01T03:57:06;20.90;99.90
57552;DHT22;43379;48.160;14.036;2022-07-01T03:59:37;21.00;99.90
57552;DHT22;43379;48.160;14.036;2022-07-01T04:02:04;21.00;99.90
57552;DHT22;43379;48.160;14.036;2022-07-01T04:04:30;20.90;99.90
57552;DHT22;43379;48.160;14.036;2022-07-01T04:06:57;21.00;99.90
57552;DHT22;43379;48.160;14.036;2022-07-01T04:09:24;21.00;99.90
57552;DHT22;43379;48.160;14.036;2022-07-01T04:11:50;21.10;99.90
57552;DHT22;43379;48.160;14.036;2022-07-01T04:14:17;21.10;99.90
57552;DHT22;43379;48.160;14.036;2022-07-01T04:16:44;21.10;99.90
57552;DHT22;43379;48.160;14.036;2022-07-01T04:19:10;21.20;99.90
57552;DHT22;43379;48.160;14.036;2022-07-01T04:21:37;21.20;99.90
57552;DHT22;43379;48.160;14.036;2022-07-01T04:24:21;21.30;99.90
57552;DHT22;43379;48.160;14.036;2022-07-01T04:26:53;21.30;99.90
57552;DHT22;43379;48.160;14.036;2022-07-01T04:29:19;21.30;99.90
57552;DHT22;43379;48.160;14.036;2022-07-01T04:31:45;21.40;99.90
57552;DHT22;43379;48.160;14.036;2022-07-01T04:34:11;21.40;99.90
57552;DHT22;43379;48.160;14.036;2022-07-01T04:36:37;21.40;99.90
57552;DHT22;43379;48.160;14.036;2022-07-01T04:39:04;21.40;99.90
57552;DHT22;43379;48.160;14.036;2022-07-01T04:41:30;21.40;99.90
57552;DHT22;43379;48.160;14.036;2022-07-01T04:44:15;21.40;99.90
57552;DHT22;43379;48.160;14.036;2022-07-01T04:46:41;21.40;99.90
57552;DHT22;43379;48.160;14.036;2022-07-01T04:49:07;21.40;99.90
57552;DHT22;43379;48.160;14.036;2022-07-01T04:51:33;21.50;99.90
57552;DHT22;43379;48.160;14.036;2022-07-01T04:54:01;21.50;99.90
57552;DHT22;43379;48.160;14.036;2022-07-01T04:56:27;21.60;99.90
57552;DHT22;43379;48.160;14.036;2022-07-01T04:58:55;21.70;99.90
57552;DHT22;43379;48.160;14.036;2022-07-01T05:01:20;21.70;99.90
57552;DHT22;43379;48.160;14.036;2022-07-01T05:03:46;21.70;99.90
57552;DHT22;43379;48.160;14.036;2022-07-01T05:06:12;21.70;99.90
57552;DHT22;43379;48.160;14.036;2022-07-01T05:08:37;21.70;99.90
57552;DHT22;43379;48.160;14.036;2022-07-01T05:11:03;21.70;99.90
57552;DHT22;43379;48.160;14.036;2022-07-01T05:13:29;21.80;99.90
57552;DHT22;43379;48.160;14.036;2022-07-01T05:15:54;21.80;99.90
57552;DHT22;43379;48.160;14.036;2022-07-01T05:18:20;21.80;99.90
57552;DHT22;43379;48.160;14.036;2022-07-01T05:21:04;21.80;99.90
57552;DHT22;43379;48.160;14.036;2022-07-01T05:23:48;21.70;99.90
57552;DHT22;43379;48.160;14.036;2022-07-01T05:26:14;21.70;99.90
57552;DHT22;43379;48.160;14.036;2022-07-01T05:28:43;21.80;99.90
57552;DHT22;43379;48.160;14.036;2022-07-01T05:31:10;21.80;99.90
57552;DHT22;43379;48.160;14.036;2022-07-01T05:33:38;21.80;99.90
57552;DHT22;43379;48.160;14.036;2022-07-01T05:36:05;21.80;99.90
57552;DHT22;43379;48.160;14.036;2022-07-01T05:38:31;21.90;99.90
57552;DHT22;43379;48.160;14.036;2022-07-01T05:40:56;21.90;99.90
57552;DHT22;43379;48.160;14.036;2022-07-01T05:43:22;21.90;99.90
57552;DHT22;43379;48.160;14.036;2022-07-01T05:45:48;22.00;99.90
57552;DHT22;43379;48.160;14.036;2022-07-01T05:48:13;22.00;99.90
57552;DHT22;43379;48.160;14.036;2022-07-01T05:50:40;22.00;99.90
57552;DHT22;43379;48.160;14.036;2022-07-01T05:53:05;22.00;99.90
57552;DHT22;43379;48.160;14.036;2022-07-01T05:55:31;22.00;99.90
57552;DHT22;43379;48.160;14.036;2022-07-01T05:57:57;22.00;99.90
57552;DHT22;43379;48.160;14.036;2022-07-01T06:00:22;22.00;99.90
57552;DHT22;43379;48.160;14.036;2022-07-01T06:02:48;22.00;99.90
57552;DHT22;43379;48.160;14.036;2022-07-01T06:05:14;22.10;99.90
57552;DHT22;43379;48.160;14.036;2022-07-01T06:07:40;22.20;99.90
57552;DHT22;43379;48.160;14.036;2022-07-01T06:10:08;22.20;99.90
57552;DHT22;43379;48.160;14.036;2022-07-01T06:12:36;22.30;99.90
57552;DHT22;43379;48.160;14.036;2022-07-01T06:15:02;22.40;99.90
57552;DHT22;43379;48.160;14.036;2022-07-01T06:17:28;22.50;99.90
57552;DHT22;43379;48.160;14.036;2022-07-01T06:19:53;22.60;99.90
57552;DHT22;43379;48.160;14.036;2022-07-01T06:22:19;22.60;99.90
57552;DHT22;43379;48.160;14.036;2022-07-01T06:24:47;22.60;99.90
57552;DHT22;43379;48.160;14.036;2022-07-01T06:27:12;22.70;99.90
57552;DHT22;43379;48.160;14.036;2022-07-01T06:29:40;22.70;99.90
57552;DHT22;43379;48.160;14.036;2022-07-01T06:32:07;22.70;99.90
57552;DHT22;43379;48.160;14.036;2022-07-01T06:34:33;22.60;99.90
57552;DHT22;43379;48.160;14.036;2022-07-01T06:36:59;22.70;99.90
57552;DHT22;43379;48.160;14.036;2022-07-01T06:39:26;22.70;99.90
57552;DHT22;43379;48.160;14.036;2022-07-01T06:41:52;22.70;99.90
57552;DHT22;43379;48.160;14.036;2022-07-01T06:44:18;22.80;99.90
57552;DHT22;43379;48.160;14.036;2022-07-01T06:46:44;22.70;99.90
57552;DHT22;43379;48.160;14.036;2022-07-01T06:49:09;22.70;99.90
57552;DHT22;43379;48.160;14.036;2022-07-01T06:51:35;22.80;99.90
57552;DHT22;43379;48.160;14.036;2022-07-01T06:54:01;22.90;99.90
57552;DHT22;43379;48.160;14.036;2022-07-01T06:56:26;22.90;99.90
57552;DHT22;43379;48.160;14.036;2022-07-01T06:58:52;22.90;99.90
57552;DHT22;43379;48.160;14.036;2022-07-01T07:01:18;22.90;99.90
57552;DHT22;43379;48.160;14.036;2022-07-01T07:03:44;23.00;99.90
57552;DHT22;43379;48.160;14.036;2022-07-01T07:06:10;23.00;99.90
57552;DHT22;43379;48.160;14.036;2022-07-01T07:08:35;23.10;99.90
57552;DHT22;43379;48.160;14.036;2022-07-01T07:11:01;23.40;99.90
57552;DHT22;43379;48.160;14.036;2022-07-01T07:13:28;23.50;99.90
57552;DHT22;43379;48.160;14.036;2022-07-01T07:15:54;23.50;99.90
57552;DHT22;43379;48.160;14.036;2022-07-01T07:18:20;23.60;99.90
57552;DHT22;43379;48.160;14.036;2022-07-01T07:20:46;23.50;99.90
57552;DHT22;43379;48.160;14.036;2022-07-01T07:23:15;23.50;99.90
57552;DHT22;43379;48.160;14.036;2022-07-01T07:25:41;23.50;99.90
57552;DHT22;43379;48.160;14.036;2022-07-01T07:28:07;23.50;99.90
57552;DHT22;43379;48.160;14.036;2022-07-01T07:30:33;23.50;99.90
57552;DHT22;43379;48.160;14.036;2022-07-01T07:32:59;23.50;99.90
57552;DHT22;43379;48.160;14.036;2022-07-01T07:35:24;23.50;99.90
57552;DHT22;43379;48.160;14.036;2022-07-01T07:37:50;23.50;99.90
57552;DHT22;43379;48.160;14.036;2022-07-01T07:40:16;23.60;99.80
57552;DHT22;43379;48.160;14.036;2022-07-01T07:42:47;23.70;99.80
57552;DHT22;43379;48.160;14.036;2022-07-01T07:45:14;23.70;99.60
57552;DHT22;43379;48.160;14.036;2022-07-01T07:47:45;23.80;99.80
57552;DHT22;43379;48.160;14.036;2022-07-01T07:50:12;23.90;99.50
57552;DHT22;43379;48.160;14.036;2022-07-01T07:52:39;23.90;99.40
57552;DHT22;43379;48.160;14.036;2022-07-01T07:55:06;23.80;99.30
57552;DHT22;43379;48.160;14.036;2022-07-01T07:57:34;23.90;99.20
57552;DHT22;43379;48.160;14.036;2022-07-01T08:00:00;23.80;98.70
57552;DHT22;43379;48.160;14.036;2022-07-01T08:02:26;23.80;99.10
57552;DHT22;43379;48.160;14.036;2022-07-01T08:04:51;23.80;99.00
57552;DHT22;43379;48.160;14.036;2022-07-01T08:07:17;23.80;99.10
57552;DHT22;43379;48.160;14.036;2022-07-01T08:09:43;23.90;99.60
57552;DHT22;43379;48.160;14.036;2022-07-01T08:12:12;24.10;99.70
57552;DHT22;43379;48.160;14.036;2022-07-01T08:14:37;24.30;98.90
57552;DHT22;43379;48.160;14.036;2022-07-01T08:17:04;24.30;98.60
57552;DHT22;43379;48.160;14.036;2022-07-01T08:19:30;24.40;98.60
57552;DHT22;43379;48.160;14.036;2022-07-01T08:21:55;24.50;98.20
57552;DHT22;43379;48.160;14.036;2022-07-01T08:24:21;24.60;98.00
57552;DHT22;43379;48.160;14.036;2022-07-01T08:26:47;24.70;97.80
57552;DHT22;43379;48.160;14.036;2022-07-01T08:29:13;24.70;97.90
57552;DHT22;43379;48.160;14.036;2022-07-01T08:31:38;24.80;97.70
57552;DHT22;43379;48.160;14.036;2022-07-01T08:34:04;24.90;97.60
57552;DHT22;43379;48.160;14.036;2022-07-01T08:36:30;25.00;97.50
57552;DHT22;43379;48.160;14.036;2022-07-01T08:38:56;25.10;97.20
57552;DHT22;43379;48.160;14.036;2022-07-01T08:41:21;25.10;96.40
57552;DHT22;43379;48.160;14.036;2022-07-01T08:43:47;25.20;96.90
57552;DHT22;43379;48.160;14.036;2022-07-01T08:46:13;25.30;96.90
57552;DHT22;43379;48.160;14.036;2022-07-01T08:48:43;25.40;97.00
57552;DHT22;43379;48.160;14.036;2022-07-01T08:51:09;25.40;96.50
57552;DHT22;43379;48.160;14.036;2022-07-01T08:53:35;25.50;96.60
57552;DHT22;43379;48.160;14.036;2022-07-01T08:56:02;25.60;96.30
57552;DHT22;43379;48.160;14.036;2022-07-01T08:58:48;25.80;96.10
57552;DHT22;43379;48.160;14.036;2022-07-01T09:01:22;26.20;95.60
57552;DHT22;43379;48.160;14.036;2022-07-01T09:03:50;26.50;96.10
57552;DHT22;43379;48.160;14.036;2022-07-01T09:06:26;26.60;95.10
57552;DHT22;43379;48.160;14.036;2022-07-01T09:08:52;26.80;94.80
57552;DHT22;43379;48.160;14.036;2022-07-01T09:11:24;26.80;94.60
57552;DHT22;43379;48.160;14.036;2022-07-01T09:14:14;27.10;95.00
57552;DHT22;43379;48.160;14.036;2022-07-01T09:16:44;27.20;94.50
57552;DHT22;43379;48.160;14.036;2022-07-01T09:19:12;27.40;94.40
57552;DHT22;43379;48.160;14.036;2022-07-01T09:21:38;27.70;94.30
57552;DHT22;43379;48.160;14.036;2022-07-01T09:24:23;27.80;94.30
57552;DHT22;43379;48.160;14.036;2022-07-01T09:26:54;27.70;93.50
57552;DHT22;43379;48.160;14.036;2022-07-01T09:29:29;28.00;93.90
57552;DHT22;43379;48.160;14.036;2022-07-01T09:31:57;28.10;92.70
57552;DHT22;43379;48.160;14.036;2022-07-01T09:34:23;28.30;92.60
57552;DHT22;43379;48.160;14.036;2022-07-01T09:40:17;28.60;91.60
57552;DHT22;43379;48.160;14.036;2022-07-01T09:42:46;28.60;92.00
57552;DHT22;43379;48.160;14.036;2022-07-01T09:45:12;28.50;91.70
57552;DHT22;43379;48.160;14.036;2022-07-01T09:47:42;28.40;91.80
57552;DHT22;43379;48.160;14.036;2022-07-01T09:50:09;28.40;92.20
57552;DHT22;43379;48.160;14.036;2022-07-01T09:52:36;28.40;92.00
57552;DHT22;43379;48.160;14.036;2022-07-01T09:55:02;28.60;91.90
57552;DHT22;43379;48.160;14.036;2022-07-01T09:57:28;28.70;91.10
57552;DHT22;43379;48.160;14.036;2022-07-01T09:59:54;28.90;90.80
57552;DHT22;43379;48.160;14.036;2022-07-01T10:02:21;28.70;91.10
57552;DHT22;43379;48.160;14.036;2022-07-01T10:05:01;28.80;90.90
57552;DHT22;43379;48.160;14.036;2022-07-01T10:12:48;28.60;91.20
57552;DHT22;43379;48.160;14.036;2022-07-01T10:15:19;28.50;91.20
57552;DHT22;43379;48.160;14.036;2022-07-01T10:17:49;28.70;92.10
57552;DHT22;43379;48.160;14.036;2022-07-01T10:20:17;28.60;91.30
57552;DHT22;43379;48.160;14.036;2022-07-01T10:22:44;28.60;91.50
57552;DHT22;43379;48.160;14.036;2022-07-01T10:25:29;28.60;91.60
57552;DHT22;43379;48.160;14.036;2022-07-01T10:36:13;28.60;91.30
57552;DHT22;43379;48.160;14.036;2022-07-01T10:41:35;28.40;91.30
57552;DHT22;43379;48.160;14.036;2022-07-01T10:44:10;28.20;91.00
57552;DHT22;43379;48.160;14.036;2022-07-01T10:49:17;27.90;92.50
57552;DHT22;43379;48.160;14.036;2022-07-01T10:51:55;27.80;92.20
57552;DHT22;43379;48.160;14.036;2022-07-01T10:59:48;27.90;93.20
57552;DHT22;43379;48.160;14.036;2022-07-01T11:02:20;27.90;93.10
57552;DHT22;43379;48.160;14.036;2022-07-01T11:04:47;28.00;92.20
57552;DHT22;43379;48.160;14.036;2022-07-01T11:07:13;28.10;91.70
57552;DHT22;43379;48.160;14.036;2022-07-01T11:09:40;28.20;91.80
57552;DHT22;43379;48.160;14.036;2022-07-01T11:12:06;28.30;92.30
57552;DHT22;43379;48.160;14.036;2022-07-01T11:14:37;28.40;92.10
57552;DHT22;43379;48.160;14.036;2022-07-01T11:17:04;28.40;91.90
57552;DHT22;43379;48.160;14.036;2022-07-01T11:19:30;28.30;91.60
57552;DHT22;43379;48.160;14.036;2022-07-01T11:21:56;28.40;92.20
57552;DHT22;43379;48.160;14.036;2022-07-01T11:24:22;28.50;91.90
57552;DHT22;43379;48.160;14.036;2022-07-01T11:26:49;28.40;91.80
57552;DHT22;43379;48.160;14.036;2022-07-01T11:29:23;28.50;92.00
57552;DHT22;43379;48.160;14.036;2022-07-01T11:31:49;28.60;91.90
57552;DHT22;43379;48.160;14.036;2022-07-01T11:34:16;28.50;91.60
57552;DHT22;43379;48.160;14.036;2022-07-01T11:36:44;28.30;90.90
57552;DHT22;43379;48.160;14.036;2022-07-01T11:39:28;28.20;91.00
57552;DHT22;43379;48.160;14.036;2022-07-01T11:42:08;28.10;91.50
57552;DHT22;43379;48.160;14.036;2022-07-01T11:44:41;28.10;91.50
57552;DHT22;43379;48.160;14.036;2022-07-01T11:47:12;28.00;91.20
57552;DHT22;43379;48.160;14.036;2022-07-01T11:49:48;27.80;91.00
57552;DHT22;43379;48.160;14.036;2022-07-01T11:52:15;27.60;91.20
57552;DHT22;43379;48.160;14.036;2022-07-01T11:54:44;27.50;91.20
57552;DHT22;43379;48.160;14.036;2022-07-01T11:57:22;27.50;91.70
57552;DHT22;43379;48.160;14.036;2022-07-01T11:59:50;27.50;91.70
57552;DHT22;43379;48.160;14.036;2022-07-01T12:02:17;27.60;91.90
57552;DHT22;43379;48.160;14.036;2022-07-01T12:04:44;27.60;92.10
57552;DHT22;43379;48.160;14.036;2022-07-01T12:07:12;27.60;92.00
57552;DHT22;43379;48.160;14.036;2022-07-01T12:09:38;27.70;91.90
57552;DHT22;43379;48.160;14.036;2022-07-01T12:12:05;27.90;92.30
57552;DHT22;43379;48.160;14.036;2022-07-01T12:14:35;27.80;91.60
57552;DHT22;43379;48.160;14.036;2022-07-01T12:17:04;27.80;91.50
57552;DHT22;43379;48.160;14.036;2022-07-01T12:19:38;27.90;91.70
57552;DHT22;43379;48.160;14.036;2022-07-01T12:22:27;27.90;91.80
57552;DHT22;43379;48.160;14.036;2022-07-01T12:25:06;27.90;91.00
57552;DHT22;43379;48.160;14.036;2022-07-01T12:27:34;27.80;91.10
57552;DHT22;43379;48.160;14.036;2022-07-01T12:30:00;27.70;91.00
57552;DHT22;43379;48.160;14.036;2022-07-01T12:32:27;27.70;91.20
57552;DHT22;43379;48.160;14.036;2022-07-01T12:34:56;27.60;91.30
57552;DHT22;43379;48.160;14.036;2022-07-01T12:37:33;27.30;91.40
57552;DHT22;43379;48.160;14.036;2022-07-01T12:40:08;27.20;91.10
57552;DHT22;43379;48.160;14.036;2022-07-01T12:42:44;27.00;91.40
57552;DHT22;43379;48.160;14.036;2022-07-01T12:45:12;26.90;91.70
57552;DHT22;43379;48.160;14.036;2022-07-01T12:47:49;26.80;91.70
57552;DHT22;43379;48.160;14.036;2022-07-01T12:50:29;26.70;91.90
57552;DHT22;43379;48.160;14.036;2022-07-01T12:53:06;26.60;92.00
57552;DHT22;43379;48.160;14.036;2022-07-01T12:55:33;26.50;92.00
57552;DHT22;43379;48.160;14.036;2022-07-01T12:57:59;26.40;92.20
57552;DHT22;43379;48.160;14.036;2022-07-01T13:00:26;26.30;92.20
57552;DHT22;43379;48.160;14.036;2022-07-01T13:02:54;26.20;92.10
57552;DHT22;43379;48.160;14.036;2022-07-01T13:05:21;26.10;92.30
57552;DHT22;43379;48.160;14.036;2022-07-01T13:07:47;25.90;92.70
57552;DHT22;43379;48.160;14.036;2022-07-01T13:10:14;25.80;93.10
57552;DHT22;43379;48.160;14.036;2022-07-01T13:12:40;25.80;93.10
57552;DHT22;43379;48.160;14.036;2022-07-01T13:15:06;25.60;93.40
57552;DHT22;43379;48.160;14.036;2022-07-01T13:17:32;25.50;93.10
57552;DHT22;43379;48.160;14.036;2022-07-01T13:19:58;25.60;93.30
57552;DHT22;43379;48.160;14.036;2022-07-01T13:22:24;25.50;93.20
57552;DHT22;43379;48.160;14.036;2022-07-01T13:24:50;25.40;93.50
57552;DHT22;43379;48.160;14.036;2022-07-01T13:27:16;25.30;93.60
57552;DHT22;43379;48.160;14.036;2022-07-01T13:29:42;25.30;93.80
57552;DHT22;43379;48.160;14.036;2022-07-01T13:32:08;25.30;94.20
57552;DHT22;43379;48.160;14.036;2022-07-01T13:34:33;25.30;93.50
57552;DHT22;43379;48.160;14.036;2022-07-01T13:36:59;25.20;93.90
57552;DHT22;43379;48.160;14.036;2022-07-01T13:39:25;25.00;93.90
57552;DHT22;43379;48.160;14.036;2022-07-01T13:41:51;25.00;94.20
57552;DHT22;43379;48.160;14.036;2022-07-01T13:44:17;25.00;94.20
57552;DHT22;43379;48.160;14.036;2022-07-01T13:46:42;24.80;94.50
57552;DHT22;43379;48.160;14.036;2022-07-01T13:49:08;24.70;94.20
57552;DHT22;43379;48.160;14.036;2022-07-01T13:51:34;24.60;94.30
57552;DHT22;43379;48.160;14.036;2022-07-01T13:53:59;24.40;94.30
57552;DHT22;43379;48.160;14.036;2022-07-01T13:56:26;24.30;94.50
57552;DHT22;43379;48.160;14.036;2022-07-01T13:58:52;24.00;96.20
57552;DHT22;43379;48.160;14.036;2022-07-01T14:01:19;23.70;97.60
57552;DHT22;43379;48.160;14.036;2022-07-01T14:03:46;23.10;97.70
57552;DHT22;43379;48.160;14.036;2022-07-01T14:06:11;22.80;98.40
57552;DHT22;43379;48.160;14.036;2022-07-01T14:08:37;22.60;98.90
57552;DHT22;43379;48.160;14.036;2022-07-01T14:11:03;22.30;99.10
57552;DHT22;43379;48.160;14.036;2022-07-01T14:13:29;22.10;99.50
57552;DHT22;43379;48.160;14.036;2022-07-01T14:15:55;21.90;99.70
57552;DHT22;43379;48.160;14.036;2022-07-01T14:18:20;21.80;99.90
57552;DHT22;43379;48.160;14.036;2022-07-01T14:20:46;21.60;99.90
57552;DHT22;43379;48.160;14.036;2022-07-01T14:23:12;21.50;99.90
57552;DHT22;43379;48.160;14.036;2022-07-01T14:25:38;21.20;99.90
57552;DHT22;43379;48.160;14.036;2022-07-01T14:28:05;21.10;99.90
57552;DHT22;43379;48.160;14.036;2022-07-01T14:30:32;21.00;99.90
57552;DHT22;43379;48.160;14.036;2022-07-01T14:32:58;20.80;99.90
57552;DHT22;43379;48.160;14.036;2022-07-01T14:35:25;20.60;99.90
57552;DHT22;43379;48.160;14.036;2022-07-01T14:37:51;20.50;99.90
57552;DHT22;43379;48.160;14.036;2022-07-01T14:40:16;20.30;99.90
57552;DHT22;43379;48.160;14.036;2022-07-01T14:42:43;20.10;99.90
57552;DHT22;43379;48.160;14.036;2022-07-01T14:45:09;20.10;99.90
57552;DHT22;43379;48.160;14.036;2022-07-01T14:47:35;19.90;99.90
57552;DHT22;43379;48.160;14.036;2022-07-01T14:50:01;19.70;99.90
57552;DHT22;43379;48.160;14.036;2022-07-01T14:52:27;19.70;99.90
57552;DHT22;43379;48.160;14.036;2022-07-01T14:54:55;19.60;99.90
57552;DHT22;43379;48.160;14.036;2022-07-01T14:57:21;19.60;99.90
57552;DHT22;43379;48.160;14.036;2022-07-01T14:59:46;19.60;99.90
57552;DHT22;43379;48.160;14.036;2022-07-01T15:02:12;19.60;99.90
57552;DHT22;43379;48.160;14.036;2022-07-01T15:04:38;19.50;99.90
57552;DHT22;43379;48.160;14.036;2022-07-01T15:07:06;19.40;99.90
57552;DHT22;43379;48.160;14.036;2022-07-01T15:09:32;19.30;99.90
57552;DHT22;43379;48.160;14.036;2022-07-01T15:11:58;19.30;99.90
57552;DHT22;43379;48.160;14.036;2022-07-01T15:14:24;19.20;99.90
57552;DHT22;43379;48.160;14.036;2022-07-01T15:16:50;19.20;99.90
57552;DHT22;43379;48.160;14.036;2022-07-01T15:19:16;19.10;99.90
57552;DHT22;43379;48.160;14.036;2022-07-01T15:21:42;19.10;99.90
57552;DHT22;43379;48.160;14.036;2022-07-01T15:24:07;19.10;99.90
57552;DHT22;43379;48.160;14.036;2022-07-01T15:26:33;19.10;99.90
57552;DHT22;43379;48.160;14.036;2022-07-01T15:28:59;19.00;99.90
57552;DHT22;43379;48.160;14.036;2022-07-01T15:31:25;19.00;99.90
57552;DHT22;43379;48.160;14.036;2022-07-01T15:33:51;19.00;99.90
57552;DHT22;43379;48.160;14.036;2022-07-01T15:36:16;18.90;99.90
57552;DHT22;43379;48.160;14.036;2022-07-01T15:38:42;19.00;99.90
57552;DHT22;43379;48.160;14.036;2022-07-01T15:41:09;19.00;99.90
57552;DHT22;43379;48.160;14.036;2022-07-01T15:43:35;18.90;99.90
57552;DHT22;43379;48.160;14.036;2022-07-01T15:46:01;18.90;99.90